createdAt,value
2022-12-15T00:00:19.594Z,31.17
2022-12-15T00:03:25.949Z,26.15
2022-12-15T00:06:31.426Z,32.97
2022-12-15T00:09:35.381Z,16.50
2022-12-15T00:12:39.568Z,23.55
2022-12-15T00:15:43.808Z,31.20
2022-12-15T00:18:47.858Z,39.03
2022-12-15T00:21:53.868Z,23.75
2022-12-15T00:24:58.105Z,29.00
2022-12-15T00:28:02.324Z,26.40
2022-12-15T00:31:06.617Z,18.17
2022-12-15T00:34:10.883Z,20.85
2022-12-15T00:37:16.974Z,25.02
2022-12-15T00:40:05.432Z,24.38
2022-12-15T00:42:52.772Z,21.92
2022-12-15T00:45:57.613Z,22.20
2022-12-15T00:48:45.269Z,36.13
2022-12-15T00:51:49.126Z,27.70
2022-12-15T00:54:54.996Z,25.10
2022-12-15T00:57:59.680Z,22.30
2022-12-15T01:01:03.777Z,22.98
2022-12-15T01:04:08.423Z,27.35
2022-12-15T01:07:13.944Z,26.48
2022-12-15T01:10:26.009Z,25.42
2022-12-15T01:13:33.572Z,26.13
2022-12-15T01:16:37.903Z,29.42
2022-12-15T01:19:42.135Z,24.13
2022-12-15T01:22:29.000Z,17.88
2022-12-15T01:25:19.299Z,17.80
2022-12-15T01:28:06.508Z,27.30
2022-12-15T01:30:53.424Z,16.52
2022-12-15T01:33:42.782Z,27.00
2022-12-15T01:36:29.882Z,20.70
2022-12-15T01:39:17.214Z,20.42
2022-12-15T01:42:04.479Z,22.83
2022-12-15T01:44:53.226Z,29.83
2022-12-15T01:47:39.854Z,31.08
2022-12-15T01:50:28.116Z,27.02
2022-12-15T01:53:16.443Z,32.25
2022-12-15T01:56:05.389Z,25.85
2022-12-15T01:58:57.595Z,18.67
2022-12-15T02:01:44.465Z,32.58
2022-12-15T02:04:37.979Z,20.90
2022-12-15T02:07:24.997Z,30.10
2022-12-15T02:10:12.517Z,30.60
2022-12-15T02:13:06.270Z,14.38
2022-12-15T02:16:01.067Z,28.50
2022-12-15T02:19:00.285Z,16.90
2022-12-15T02:21:57.905Z,28.05
2022-12-15T02:25:21.006Z,33.75
2022-12-15T02:28:12.086Z,16.05
2022-12-15T02:31:22.039Z,31.83
2022-12-15T02:34:15.649Z,22.40
2022-12-15T02:37:08.458Z,15.20
2022-12-15T02:39:55.032Z,17.55
2022-12-15T02:42:46.520Z,30.92
2022-12-15T02:45:41.607Z,26.30
2022-12-15T02:48:38.782Z,28.90
2022-12-15T02:51:41.492Z,32.83
2022-12-15T02:54:43.760Z,34.00
2022-12-15T02:57:38.953Z,19.33
2022-12-15T03:00:25.827Z,25.95
2022-12-15T03:03:14.976Z,15.43
2022-12-15T03:06:05.367Z,17.85
2022-12-15T03:08:52.292Z,20.55
2022-12-15T03:11:39.699Z,27.10
2022-12-15T03:14:26.636Z,22.05
2022-12-15T03:17:13.481Z,29.25
2022-12-15T03:20:00.346Z,21.48
2022-12-15T03:22:48.529Z,25.90
2022-12-15T03:25:35.005Z,20.27
2022-12-15T03:28:21.792Z,22.50
2022-12-15T03:31:08.569Z,23.30
2022-12-15T03:33:55.496Z,43.70
2022-12-15T03:36:42.443Z,14.93
2022-12-15T03:39:30.758Z,21.45
2022-12-15T03:42:37.563Z,25.23
2022-12-15T03:45:25.684Z,23.27
2022-12-15T03:48:12.592Z,22.58
2022-12-15T03:50:59.389Z,19.38
2022-12-15T03:53:47.614Z,26.38
2022-12-15T03:56:35.914Z,21.70
2022-12-15T03:59:22.664Z,10.77
2022-12-15T04:02:12.510Z,23.38
2022-12-15T04:04:59.241Z,16.92
2022-12-15T04:07:46.880Z,11.90
2022-12-15T04:10:36.101Z,17.10
2022-12-15T04:13:24.061Z,19.25
2022-12-15T04:16:19.291Z,33.20
2022-12-15T04:19:24.360Z,18.83
2022-12-15T04:22:17.687Z,22.15
2022-12-15T04:25:23.549Z,18.50
2022-12-15T04:28:29.230Z,9.50
2022-12-15T04:31:39.123Z,20.67
2022-12-15T04:34:43.788Z,20.00
2022-12-15T04:37:48.104Z,16.13
2022-12-15T04:40:52.352Z,36.22
2022-12-15T04:43:56.504Z,19.50
2022-12-15T04:47:02.662Z,29.75
2022-12-15T04:50:06.865Z,24.77
2022-12-15T04:53:11.008Z,50.42
2022-12-15T04:56:18.604Z,30.45
2022-12-15T04:59:23.591Z,35.78
2022-12-15T05:02:29.276Z,38.67
2022-12-15T05:05:33.678Z,42.58
2022-12-15T05:08:37.926Z,31.58
2022-12-15T05:11:42.007Z,27.48
2022-12-15T05:14:46.247Z,20.58
2022-12-15T05:17:55.092Z,24.52
2022-12-15T05:20:59.248Z,30.85
2022-12-15T05:24:03.428Z,42.05
2022-12-15T05:27:07.610Z,27.17
2022-12-15T05:30:11.559Z,32.35
2022-12-15T05:32:59.712Z,36.55
2022-12-15T05:35:46.563Z,38.78
2022-12-15T05:38:33.936Z,35.78
2022-12-15T05:41:22.301Z,40.38
2022-12-15T05:44:09.266Z,40.40
2022-12-15T05:46:56.100Z,34.47
2022-12-15T05:49:44.078Z,49.22
2022-12-15T05:52:30.742Z,50.70
2022-12-15T05:55:18.033Z,42.08
2022-12-15T05:58:05.023Z,24.45
2022-12-15T06:00:51.693Z,56.03
2022-12-15T06:03:39.475Z,26.05
2022-12-15T06:06:27.812Z,38.80
2022-12-15T06:09:14.249Z,50.20
2022-12-15T06:12:01.076Z,45.50
2022-12-15T06:14:48.014Z,40.78
2022-12-15T06:17:36.960Z,44.67
2022-12-15T06:20:24.387Z,31.08
2022-12-15T06:23:12.923Z,31.05
2022-12-15T06:26:00.813Z,51.38
2022-12-15T06:28:48.693Z,43.15
2022-12-15T06:31:36.214Z,43.67
2022-12-15T06:34:22.864Z,44.10
2022-12-15T06:37:09.742Z,49.92
2022-12-15T06:39:57.848Z,69.35
2022-12-15T06:42:44.926Z,50.33
2022-12-15T06:45:31.749Z,51.05
2022-12-15T06:48:19.297Z,61.65
2022-12-15T06:51:14.970Z,51.38
2022-12-15T06:54:03.770Z,44.33
2022-12-15T06:56:51.725Z,63.90
2022-12-15T06:59:39.287Z,40.38
2022-12-15T07:02:29.146Z,45.63
2022-12-15T07:05:16.630Z,58.33
2022-12-15T07:08:03.487Z,43.42
2022-12-15T07:10:50.092Z,48.42
2022-12-15T07:13:38.549Z,29.38
2022-12-15T07:16:26.823Z,36.78
2022-12-15T07:19:14.111Z,52.95
2022-12-15T07:22:01.544Z,60.95
2022-12-15T07:24:48.567Z,51.08
2022-12-15T07:27:35.396Z,47.65
2022-12-15T07:30:23.571Z,32.08
2022-12-15T07:33:10.410Z,56.40
2022-12-15T07:35:57.176Z,52.58
2022-12-15T07:38:49.864Z,42.53
2022-12-15T07:41:40.457Z,27.30
2022-12-15T07:44:27.065Z,46.47
2022-12-15T07:47:15.308Z,39.58
2022-12-15T07:50:02.186Z,34.05
2022-12-15T07:52:49.022Z,51.65
2022-12-15T07:55:57.570Z,45.38
2022-12-15T07:58:42.810Z,36.00
2022-12-15T08:01:30.057Z,45.60
2022-12-15T08:04:18.663Z,32.17
2022-12-15T08:07:05.590Z,58.25
2022-12-15T08:09:54.010Z,13.77
2022-12-15T08:12:40.732Z,55.17
2022-12-15T08:15:27.563Z,42.50
2022-12-15T08:18:14.983Z,28.75
2022-12-15T08:21:05.107Z,46.35
2022-12-15T08:23:52.116Z,31.58
2022-12-15T08:26:39.751Z,34.53
2022-12-15T08:32:33.602Z,36.65
2022-12-15T08:35:54.335Z,51.05
2022-12-15T08:38:28.500Z,46.63
2022-12-15T08:41:17.510Z,36.78
2022-12-15T08:44:04.807Z,41.85
2022-12-15T08:46:52.410Z,40.55
2022-12-15T08:49:40.185Z,42.70
2022-12-15T08:52:27.038Z,37.42
2022-12-15T08:55:22.153Z,43.47
2022-12-15T08:58:09.365Z,47.53
2022-12-15T09:01:07.287Z,56.92
2022-12-15T09:03:55.853Z,41.42
2022-12-15T09:06:42.609Z,35.10
2022-12-15T09:09:29.146Z,44.88
2022-12-15T09:12:17.189Z,37.00
2022-12-15T09:15:03.959Z,38.92
2022-12-15T09:17:50.835Z,37.40
2022-12-15T09:20:37.595Z,37.05
2022-12-15T09:23:25.083Z,38.55
2022-12-15T09:26:15.563Z,43.40
2022-12-15T09:29:03.683Z,50.63
2022-12-15T09:31:50.496Z,39.90
2022-12-15T09:34:41.672Z,36.10
2022-12-15T09:37:28.798Z,36.13
2022-12-15T09:40:15.705Z,43.72
2022-12-15T09:43:32.732Z,38.30
2022-12-15T09:46:27.897Z,49.58
2022-12-15T09:49:25.125Z,41.15
2022-12-15T09:52:14.463Z,30.05
2022-12-15T09:55:02.917Z,43.17
2022-12-15T09:57:54.174Z,41.28
2022-12-15T10:00:46.262Z,40.20
2022-12-15T10:03:50.142Z,29.85
2022-12-15T10:06:50.636Z,35.88
2022-12-15T10:09:38.542Z,36.95
2022-12-15T10:12:30.966Z,32.42
2022-12-15T10:15:24.179Z,41.20
2022-12-15T10:18:20.862Z,44.97
2022-12-15T10:21:14.399Z,41.63
2022-12-15T10:24:17.612Z,38.33
2022-12-15T10:27:44.051Z,35.25
2022-12-15T10:30:42.368Z,33.28
2022-12-15T10:33:34.572Z,29.27
2022-12-15T10:36:23.163Z,35.40
2022-12-15T10:39:12.954Z,24.33
2022-12-15T10:42:17.619Z,25.10
2022-12-15T10:45:06.954Z,42.55
2022-12-15T10:48:02.492Z,43.65
2022-12-15T10:50:50.256Z,37.13
2022-12-15T10:53:45.256Z,40.75
2022-12-15T10:56:50.233Z,42.20
2022-12-15T10:59:39.241Z,38.05
2022-12-15T11:02:32.755Z,33.75
2022-12-15T11:05:19.967Z,44.45
2022-12-15T11:08:16.304Z,44.95
2022-12-15T11:11:26.025Z,43.97
2022-12-15T11:14:16.509Z,39.72
2022-12-15T11:17:08.276Z,37.25
2022-12-15T11:20:03.263Z,42.80
2022-12-15T11:22:57.669Z,50.20
2022-12-15T11:25:52.695Z,34.03
2022-12-15T11:28:47.197Z,40.40
2022-12-15T11:31:39.503Z,43.75
2022-12-15T11:34:32.432Z,42.70
2022-12-15T11:37:41.337Z,45.72
2022-12-15T11:40:40.728Z,39.03
2022-12-15T11:44:06.547Z,41.97
2022-12-15T11:47:04.961Z,39.90
2022-12-15T11:50:25.846Z,34.50
2022-12-15T11:53:32.761Z,49.40
2022-12-15T11:56:27.689Z,44.10
2022-12-15T11:59:53.417Z,46.23
2022-12-15T12:03:05.647Z,39.83
2022-12-15T12:06:12.753Z,47.80
2022-12-15T12:09:13.985Z,41.03
2022-12-15T12:12:12.136Z,36.93
2022-12-15T12:15:21.271Z,33.87
2022-12-15T12:18:19.080Z,44.43
2022-12-15T12:21:10.204Z,46.13
2022-12-15T12:24:01.836Z,41.17
2022-12-15T12:26:53.396Z,47.63
2022-12-15T12:29:45.405Z,37.37
2022-12-15T12:32:44.947Z,56.30
2022-12-15T12:35:39.883Z,41.10
2022-12-15T12:38:32.590Z,41.33
2022-12-15T12:41:28.695Z,49.17
2022-12-15T12:44:27.369Z,49.90
2022-12-15T12:47:20.773Z,52.17
2022-12-15T12:50:15.782Z,39.27
2022-12-15T12:53:05.156Z,47.67
2022-12-15T12:55:52.160Z,47.90
2022-12-15T12:58:41.519Z,44.67
2022-12-15T13:01:32.148Z,40.90
2022-12-15T13:04:41.315Z,44.47
2022-12-15T13:07:34.812Z,41.07
2022-12-15T13:10:24.838Z,39.50
2022-12-15T13:13:37.328Z,47.53
2022-12-15T13:16:26.914Z,47.63
2022-12-15T13:19:14.381Z,41.30
2022-12-15T13:22:01.649Z,37.00
2022-12-15T13:28:01.018Z,50.43
2022-12-15T13:31:30.063Z,40.50
2022-12-15T13:34:27.248Z,48.37
2022-12-15T13:37:43.706Z,45.53
2022-12-15T13:40:36.848Z,41.90
2022-12-15T13:43:44.662Z,40.80
2022-12-15T13:46:35.755Z,50.53
2022-12-15T13:49:28.159Z,48.10
2022-12-15T13:53:07.969Z,46.23
2022-12-15T13:55:39.075Z,45.57
2022-12-15T13:58:29.483Z,50.30
2022-12-15T14:01:32.030Z,37.63
2022-12-15T14:04:21.896Z,43.43
2022-12-15T14:07:08.560Z,45.27
2022-12-15T14:09:55.098Z,44.67
2022-12-15T14:12:41.672Z,40.60
2022-12-15T14:15:31.860Z,40.97
2022-12-15T14:18:29.442Z,45.77
2022-12-15T14:21:22.161Z,39.03
2022-12-15T14:24:40.708Z,47.33
2022-12-15T14:27:30.661Z,53.43
2022-12-15T14:30:24.807Z,38.70
2022-12-15T14:33:16.420Z,43.93
2022-12-15T14:36:08.719Z,40.27
2022-12-15T14:39:00.585Z,39.03
2022-12-15T14:41:49.332Z,52.47
2022-12-15T14:44:41.126Z,37.67
2022-12-15T14:47:34.968Z,43.63
2022-12-15T14:50:26.499Z,46.77
2022-12-15T14:53:18.557Z,44.20
2022-12-15T14:56:29.674Z,38.47
2022-12-15T14:59:20.415Z,45.70
2022-12-15T15:02:14.114Z,45.30
2022-12-15T15:03:07.443Z,50.30
2022-12-15T15:05:04.247Z,50.63
2022-12-15T15:07:56.949Z,45.53
2022-12-15T15:10:45.324Z,42.80
2022-12-15T15:13:40.307Z,47.30
2022-12-15T15:16:27.686Z,42.53
2022-12-15T15:19:21.524Z,38.40
2022-12-15T15:22:25.439Z,36.73
2022-12-15T15:25:29.056Z,38.03
2022-12-15T15:28:24.257Z,43.77
2022-12-15T15:31:31.673Z,39.03
2022-12-15T15:34:21.184Z,38.13
2022-12-15T15:37:18.289Z,31.23
2022-12-15T15:40:07.992Z,42.17
2022-12-15T15:42:55.647Z,41.17
2022-12-15T15:45:43.724Z,41.83
2022-12-15T15:48:34.663Z,33.03
2022-12-15T15:51:22.592Z,40.70
2022-12-15T15:54:14.301Z,42.97
2022-12-15T15:57:01.303Z,42.55
2022-12-15T15:59:48.536Z,47.13
2022-12-15T16:02:36.756Z,38.90
2022-12-15T16:05:23.636Z,37.05
2022-12-15T16:08:16.657Z,43.63
2022-12-15T16:11:03.685Z,36.53
2022-12-15T16:13:51.216Z,39.70
2022-12-15T16:16:38.269Z,30.83
2022-12-15T16:19:28.702Z,39.95
2022-12-15T16:22:19.557Z,40.00
2022-12-15T16:25:13.229Z,36.67
2022-12-15T16:28:00.711Z,31.60
2022-12-15T16:30:48.118Z,34.92
2022-12-15T16:33:34.674Z,36.22
2022-12-15T16:36:23.235Z,57.90
2022-12-15T16:39:25.130Z,45.55
2022-12-15T16:42:13.169Z,39.78
2022-12-15T16:45:00.240Z,35.50
2022-12-15T16:47:47.128Z,40.83
2022-12-15T16:50:37.874Z,34.97
2022-12-15T16:53:28.839Z,36.67
2022-12-15T16:56:16.594Z,37.90
2022-12-15T16:59:31.511Z,40.10
2022-12-15T17:02:28.970Z,38.60
2022-12-15T17:05:16.453Z,33.20
2022-12-15T17:08:06.493Z,38.17
2022-12-15T17:10:54.876Z,49.10
2022-12-15T17:13:46.005Z,40.83
2022-12-15T17:16:32.820Z,45.58
2022-12-15T17:19:21.511Z,69.20
2022-12-15T17:22:12.740Z,40.22
2022-12-15T17:24:59.423Z,49.17
2022-12-15T17:27:49.165Z,36.65
2022-12-15T17:30:36.030Z,46.25
2022-12-15T17:33:24.804Z,42.42
2022-12-15T17:36:16.816Z,42.72
2022-12-15T17:39:03.494Z,44.65
2022-12-15T17:42:05.927Z,41.70
2022-12-15T17:44:54.166Z,53.55
2022-12-15T17:47:40.805Z,40.58
2022-12-15T17:50:27.617Z,43.42
2022-12-15T17:53:14.631Z,46.20
2022-12-15T17:56:01.326Z,47.30
2022-12-15T17:58:48.301Z,41.17
2022-12-15T18:01:36.658Z,38.15
2022-12-15T18:04:23.505Z,47.65
2022-12-15T18:07:16.465Z,48.08
2022-12-15T18:10:03.563Z,41.08
2022-12-15T18:12:50.309Z,44.35
2022-12-15T18:15:37.119Z,35.00
2022-12-15T18:18:26.226Z,43.40
2022-12-15T18:21:15.653Z,41.92
2022-12-15T18:24:02.516Z,42.05
2022-12-15T18:26:49.503Z,43.53
2022-12-15T18:29:36.374Z,42.33
2022-12-15T18:32:25.611Z,45.75
2022-12-15T18:35:20.729Z,39.05
2022-12-15T18:38:15.506Z,44.40
2022-12-15T18:41:04.362Z,38.47
2022-12-15T18:43:51.643Z,42.47
2022-12-15T18:46:42.008Z,40.30
2022-12-15T18:49:31.360Z,39.60
2022-12-15T18:52:21.595Z,41.47
2022-12-15T18:55:21.264Z,40.92
2022-12-15T18:58:22.582Z,35.42
2022-12-15T19:01:10.729Z,42.90
2022-12-15T19:03:57.869Z,36.63
2022-12-15T19:06:45.975Z,43.53
2022-12-15T19:09:33.937Z,37.85
2022-12-15T19:12:20.920Z,46.33
2022-12-15T19:15:08.324Z,33.22
2022-12-15T19:18:12.259Z,34.88
2022-12-15T19:21:16.847Z,41.53
2022-12-15T19:24:04.568Z,38.45
2022-12-15T19:26:52.554Z,37.65
2022-12-15T19:29:40.380Z,38.97
2022-12-15T19:32:27.427Z,39.90
2022-12-15T19:35:14.353Z,32.08
2022-12-15T19:38:04.540Z,35.17
2022-12-15T19:40:53.757Z,42.03
2022-12-15T19:43:42.433Z,47.00
2022-12-15T19:46:29.079Z,43.03
2022-12-15T19:49:15.646Z,35.63
2022-12-15T19:52:02.452Z,33.97
2022-12-15T19:54:50.883Z,32.35
2022-12-15T19:57:37.475Z,39.72
2022-12-15T20:00:27.038Z,31.55
2022-12-15T20:03:13.927Z,37.15
2022-12-15T20:06:02.815Z,35.88
2022-12-15T20:08:52.516Z,30.52
2022-12-15T20:11:41.611Z,35.95
2022-12-15T20:14:28.406Z,38.40
2022-12-15T20:17:16.783Z,36.75
2022-12-15T20:20:03.716Z,39.17
2022-12-15T20:22:54.811Z,41.30
2022-12-15T20:25:42.097Z,37.13
2022-12-15T20:28:30.873Z,36.97
2022-12-15T20:31:20.701Z,44.00
2022-12-15T20:34:08.960Z,30.75
2022-12-15T20:36:55.949Z,41.10
2022-12-15T20:39:42.685Z,35.53
2022-12-15T20:42:29.548Z,34.80
2022-12-15T20:45:17.541Z,43.42
2022-12-15T20:48:04.217Z,40.08
2022-12-15T20:50:53.442Z,42.75
2022-12-15T20:53:40.220Z,42.90
2022-12-15T20:56:28.161Z,34.88
2022-12-15T20:59:15.415Z,37.25
2022-12-15T21:02:02.578Z,36.78
2022-12-15T21:04:50.730Z,34.33
2022-12-15T21:07:38.721Z,40.92
2022-12-15T21:10:25.435Z,38.75
2022-12-15T21:13:19.624Z,38.08
2022-12-15T21:16:06.698Z,33.88
2022-12-15T21:22:00.624Z,38.65
2022-12-15T21:24:50.792Z,33.13
2022-12-15T21:27:38.193Z,34.10
2022-12-15T21:30:25.832Z,39.15
2022-12-15T21:33:12.730Z,42.92
2022-12-15T21:35:59.830Z,33.13
2022-12-15T21:38:48.979Z,40.00
2022-12-15T21:41:39.929Z,36.30
2022-12-15T21:44:26.595Z,37.60
2022-12-15T21:47:24.950Z,36.35
2022-12-15T21:50:10.511Z,36.35
2022-12-15T21:52:57.764Z,29.85
2022-12-15T21:55:47.566Z,37.00
2022-12-15T21:58:35.818Z,24.52
2022-12-15T22:01:25.206Z,35.55
2022-12-15T22:04:18.883Z,34.40
2022-12-15T22:07:07.592Z,43.05
2022-12-15T22:09:55.094Z,31.58
2022-12-15T22:12:43.142Z,34.40
2022-12-15T22:15:31.356Z,38.92
2022-12-15T22:18:22.454Z,40.85
2022-12-15T22:21:09.141Z,32.97
2022-12-15T22:23:56.388Z,28.40
2022-12-15T22:26:43.683Z,37.47
2022-12-15T22:29:31.750Z,31.50
2022-12-15T22:32:19.969Z,38.38
2022-12-15T22:35:14.664Z,35.60
2022-12-15T22:38:01.974Z,29.42
2022-12-15T22:40:50.202Z,36.70
2022-12-15T22:43:39.212Z,36.15
2022-12-15T22:46:26.318Z,42.25
2022-12-15T22:49:17.625Z,42.08
2022-12-15T22:52:04.984Z,64.38
2022-12-15T22:54:54.155Z,70.65
2022-12-15T22:57:41.608Z,122.38
2022-12-15T23:00:28.560Z,79.40
2022-12-15T23:03:15.248Z,63.83
2022-12-15T23:06:04.448Z,34.60
2022-12-15T23:08:55.736Z,41.33
2022-12-15T23:11:42.209Z,50.00
2022-12-15T23:14:44.043Z,45.47
2022-12-15T23:17:30.534Z,45.95
2022-12-15T23:20:17.436Z,41.95
2022-12-15T23:23:05.923Z,41.28
2022-12-15T23:25:53.443Z,38.50
2022-12-15T23:28:40.327Z,37.58
2022-12-15T23:31:27.222Z,38.50
2022-12-15T23:34:14.619Z,30.95
2022-12-15T23:37:02.467Z,29.48
2022-12-15T23:39:50.483Z,26.42
2022-12-15T23:42:39.413Z,35.90
2022-12-15T23:45:26.191Z,42.90
2022-12-15T23:48:14.463Z,36.83
2022-12-15T23:51:09.608Z,43.25
2022-12-15T23:53:56.131Z,35.92
2022-12-15T23:56:44.832Z,30.55
2022-12-15T23:59:31.520Z,30.25
